sensor_id;sensor_type;location;lat;lon;timestamp;P1;durP1;ratioP1;P2;durP2;ratioP2
11338;SDS011;5724;42.684;23.252;2023-08-06T00:00:06;3.38;;;3.17;;
11338;SDS011;5724;42.684;23.252;2023-08-06T00:02:32;3.33;;;3.17;;
11338;SDS011;5724;42.684;23.252;2023-08-06T00:04:57;3.17;;;3.08;;
11338;SDS011;5724;42.684;23.252;2023-08-06T00:07:22;3.92;;;3.70;;
11338;SDS011;5724;42.684;23.252;2023-08-06T00:09:48;3.88;;;3.58;;
11338;SDS011;5724;42.684;23.252;2023-08-06T00:12:13;3.30;;;3.08;;
11338;SDS011;5724;42.684;23.252;2023-08-06T00:14:39;3.67;;;3.47;;
11338;SDS011;5724;42.684;23.252;2023-08-06T00:17:04;3.47;;;3.33;;
11338;SDS011;5724;42.684;23.252;2023-08-06T00:19:30;3.67;;;3.35;;
11338;SDS011;5724;42.684;23.252;2023-08-06T00:21:56;4.40;;;3.90;;
11338;SDS011;5724;42.684;23.252;2023-08-06T00:24:22;5.97;;;5.60;;
11338;SDS011;5724;42.684;23.252;2023-08-06T00:26:47;4.05;;;3.85;;
11338;SDS011;5724;42.684;23.252;2023-08-06T00:29:13;3.97;;;3.67;;
11338;SDS011;5724;42.684;23.252;2023-08-06T00:31:38;2.83;;;2.72;;
11338;SDS011;5724;42.684;23.252;2023-08-06T00:34:03;3.55;;;3.25;;
11338;SDS011;5724;42.684;23.252;2023-08-06T00:36:29;3.33;;;3.00;;
11338;SDS011;5724;42.684;23.252;2023-08-06T00:38:54;3.42;;;3.20;;
11338;SDS011;5724;42.684;23.252;2023-08-06T00:41:20;3.47;;;3.17;;
11338;SDS011;5724;42.684;23.252;2023-08-06T00:43:46;3.47;;;3.38;;
11338;SDS011;5724;42.684;23.252;2023-08-06T00:46:12;3.50;;;3.30;;
11338;SDS011;5724;42.684;23.252;2023-08-06T00:48:37;4.13;;;3.75;;
11338;SDS011;5724;42.684;23.252;2023-08-06T00:51:03;3.65;;;3.45;;
11338;SDS011;5724;42.684;23.252;2023-08-06T00:53:28;4.03;;;3.72;;
11338;SDS011;5724;42.684;23.252;2023-08-06T00:55:54;4.22;;;3.90;;
11338;SDS011;5724;42.684;23.252;2023-08-06T00:58:19;4.57;;;4.25;;
11338;SDS011;5724;42.684;23.252;2023-08-06T01:00:45;4.78;;;3.67;;
11338;SDS011;5724;42.684;23.252;2023-08-06T01:03:11;3.72;;;3.53;;
11338;SDS011;5724;42.684;23.252;2023-08-06T01:05:36;3.70;;;3.60;;
11338;SDS011;5724;42.684;23.252;2023-08-06T01:16:17;3.83;;;3.63;;
11338;SDS011;5724;42.684;23.252;2023-08-06T01:18:46;4.28;;;4.07;;
11338;SDS011;5724;42.684;23.252;2023-08-06T01:21:14;3.88;;;3.67;;
11338;SDS011;5724;42.684;23.252;2023-08-06T01:23:43;4.47;;;4.20;;
11338;SDS011;5724;42.684;23.252;2023-08-06T01:28:50;4.18;;;3.97;;
11338;SDS011;5724;42.684;23.252;2023-08-06T01:31:22;4.45;;;4.25;;
11338;SDS011;5724;42.684;23.252;2023-08-06T01:33:51;4.75;;;4.55;;
11338;SDS011;5724;42.684;23.252;2023-08-06T01:36:18;4.22;;;4.03;;
11338;SDS011;5724;42.684;23.252;2023-08-06T01:38:46;4.28;;;3.90;;
11338;SDS011;5724;42.684;23.252;2023-08-06T01:41:11;4.10;;;3.90;;
11338;SDS011;5724;42.684;23.252;2023-08-06T01:43:37;4.50;;;4.30;;
11338;SDS011;5724;42.684;23.252;2023-08-06T01:46:03;4.38;;;3.97;;
11338;SDS011;5724;42.684;23.252;2023-08-06T01:48:28;4.15;;;3.95;;
11338;SDS011;5724;42.684;23.252;2023-08-06T01:50:54;4.13;;;3.95;;
11338;SDS011;5724;42.684;23.252;2023-08-06T01:53:19;4.50;;;4.30;;
11338;SDS011;5724;42.684;23.252;2023-08-06T01:55:48;4.60;;;4.30;;
11338;SDS011;5724;42.684;23.252;2023-08-06T01:58:14;4.13;;;3.85;;
11338;SDS011;5724;42.684;23.252;2023-08-06T02:00:40;3.95;;;3.75;;
11338;SDS011;5724;42.684;23.252;2023-08-06T02:03:06;4.57;;;4.18;;
11338;SDS011;5724;42.684;23.252;2023-08-06T02:05:31;4.05;;;3.85;;
11338;SDS011;5724;42.684;23.252;2023-08-06T02:07:56;4.10;;;3.90;;
11338;SDS011;5724;42.684;23.252;2023-08-06T02:10:22;3.92;;;3.72;;
11338;SDS011;5724;42.684;23.252;2023-08-06T02:12:47;4.88;;;4.53;;
11338;SDS011;5724;42.684;23.252;2023-08-06T02:15:13;5.85;;;4.07;;
11338;SDS011;5724;42.684;23.252;2023-08-06T02:17:38;4.38;;;4.13;;
11338;SDS011;5724;42.684;23.252;2023-08-06T02:20:04;4.22;;;3.95;;
11338;SDS011;5724;42.684;23.252;2023-08-06T02:22:30;6.45;;;4.10;;
11338;SDS011;5724;42.684;23.252;2023-08-06T02:24:55;4.55;;;4.25;;
11338;SDS011;5724;42.684;23.252;2023-08-06T02:27:21;4.70;;;4.20;;
11338;SDS011;5724;42.684;23.252;2023-08-06T02:29:46;4.50;;;4.10;;
11338;SDS011;5724;42.684;23.252;2023-08-06T02:32:11;4.15;;;3.90;;
11338;SDS011;5724;42.684;23.252;2023-08-06T02:34:37;4.28;;;3.85;;
11338;SDS011;5724;42.684;23.252;2023-08-06T02:37:02;4.82;;;4.45;;
11338;SDS011;5724;42.684;23.252;2023-08-06T02:39:28;5.13;;;4.80;;
11338;SDS011;5724;42.684;23.252;2023-08-06T02:41:53;4.85;;;4.63;;
11338;SDS011;5724;42.684;23.252;2023-08-06T02:44:19;5.35;;;4.85;;
11338;SDS011;5724;42.684;23.252;2023-08-06T02:46:44;4.55;;;4.15;;
11338;SDS011;5724;42.684;23.252;2023-08-06T02:49:10;3.80;;;3.63;;
11338;SDS011;5724;42.684;23.252;2023-08-06T02:51:36;2.97;;;2.88;;
11338;SDS011;5724;42.684;23.252;2023-08-06T02:54:01;3.75;;;3.38;;
11338;SDS011;5724;42.684;23.252;2023-08-06T02:56:26;5.60;;;2.90;;
11338;SDS011;5724;42.684;23.252;2023-08-06T02:58:52;3.08;;;2.90;;
11338;SDS011;5724;42.684;23.252;2023-08-06T03:01:17;3.28;;;3.08;;
11338;SDS011;5724;42.684;23.252;2023-08-06T03:03:43;3.65;;;3.35;;
11338;SDS011;5724;42.684;23.252;2023-08-06T03:06:27;3.25;;;3.10;;
11338;SDS011;5724;42.684;23.252;2023-08-06T03:08:52;3.90;;;3.60;;
11338;SDS011;5724;42.684;23.252;2023-08-06T03:11:17;4.15;;;3.75;;
11338;SDS011;5724;42.684;23.252;2023-08-06T03:13:43;3.63;;;3.42;;
11338;SDS011;5724;42.684;23.252;2023-08-06T03:16:08;4.43;;;4.13;;
11338;SDS011;5724;42.684;23.252;2023-08-06T03:18:34;3.58;;;3.38;;
11338;SDS011;5724;42.684;23.252;2023-08-06T03:20:59;4.00;;;3.70;;
11338;SDS011;5724;42.684;23.252;2023-08-06T03:23:25;4.38;;;4.13;;
11338;SDS011;5724;42.684;23.252;2023-08-06T03:25:50;4.22;;;3.90;;
11338;SDS011;5724;42.684;23.252;2023-08-06T03:28:16;3.95;;;3.70;;
11338;SDS011;5724;42.684;23.252;2023-08-06T03:30:41;4.30;;;3.83;;
11338;SDS011;5724;42.684;23.252;2023-08-06T03:33:07;3.92;;;3.72;;
11338;SDS011;5724;42.684;23.252;2023-08-06T03:35:32;7.07;;;4.00;;
11338;SDS011;5724;42.684;23.252;2023-08-06T03:37:58;3.40;;;3.20;;
11338;SDS011;5724;42.684;23.252;2023-08-06T03:40:23;3.08;;;2.97;;
11338;SDS011;5724;42.684;23.252;2023-08-06T03:42:48;3.40;;;3.20;;
11338;SDS011;5724;42.684;23.252;2023-08-06T03:45:14;3.80;;;3.50;;
11338;SDS011;5724;42.684;23.252;2023-08-06T03:47:40;4.50;;;4.15;;
11338;SDS011;5724;42.684;23.252;2023-08-06T03:50:05;4.55;;;4.35;;
11338;SDS011;5724;42.684;23.252;2023-08-06T03:52:31;4.03;;;3.80;;
11338;SDS011;5724;42.684;23.252;2023-08-06T03:54:56;4.63;;;4.28;;
11338;SDS011;5724;42.684;23.252;2023-08-06T03:57:22;4.43;;;4.10;;
11338;SDS011;5724;42.684;23.252;2023-08-06T03:59:47;4.10;;;3.80;;
11338;SDS011;5724;42.684;23.252;2023-08-06T04:02:13;4.03;;;3.83;;
11338;SDS011;5724;42.684;23.252;2023-08-06T04:04:38;4.18;;;3.88;;
11338;SDS011;5724;42.684;23.252;2023-08-06T04:07:03;4.18;;;3.97;;
11338;SDS011;5724;42.684;23.252;2023-08-06T04:09:29;4.53;;;4.13;;
11338;SDS011;5724;42.684;23.252;2023-08-06T04:11:55;3.90;;;3.60;;
11338;SDS011;5724;42.684;23.252;2023-08-06T04:14:21;4.00;;;3.80;;
11338;SDS011;5724;42.684;23.252;2023-08-06T04:16:46;4.60;;;4.20;;
11338;SDS011;5724;42.684;23.252;2023-08-06T04:19:12;5.80;;;5.35;;
11338;SDS011;5724;42.684;23.252;2023-08-06T04:21:37;8.95;;;8.45;;
11338;SDS011;5724;42.684;23.252;2023-08-06T04:24:02;9.88;;;9.35;;
11338;SDS011;5724;42.684;23.252;2023-08-06T04:26:28;9.85;;;9.25;;
11338;SDS011;5724;42.684;23.252;2023-08-06T04:28:54;9.05;;;8.43;;
11338;SDS011;5724;42.684;23.252;2023-08-06T04:31:19;9.40;;;8.88;;
11338;SDS011;5724;42.684;23.252;2023-08-06T04:33:47;5.60;;;5.28;;
11338;SDS011;5724;42.684;23.252;2023-08-06T04:36:13;4.63;;;4.43;;
11338;SDS011;5724;42.684;23.252;2023-08-06T04:38:38;4.43;;;4.13;;
11338;SDS011;5724;42.684;23.252;2023-08-06T04:41:06;5.32;;;5.00;;
11338;SDS011;5724;42.684;23.252;2023-08-06T04:43:31;5.15;;;4.60;;
11338;SDS011;5724;42.684;23.252;2023-08-06T04:45:57;5.68;;;4.57;;
11338;SDS011;5724;42.684;23.252;2023-08-06T04:48:22;5.07;;;4.78;;
11338;SDS011;5724;42.684;23.252;2023-08-06T04:50:48;4.53;;;4.30;;
11338;SDS011;5724;42.684;23.252;2023-08-06T04:53:15;4.95;;;4.60;;
11338;SDS011;5724;42.684;23.252;2023-08-06T04:55:41;3.90;;;3.65;;
11338;SDS011;5724;42.684;23.252;2023-08-06T04:58:08;3.50;;;3.30;;
11338;SDS011;5724;42.684;23.252;2023-08-06T05:00:34;3.58;;;3.38;;
11338;SDS011;5724;42.684;23.252;2023-08-06T05:03:00;3.80;;;3.65;;
11338;SDS011;5724;42.684;23.252;2023-08-06T05:05:26;6.82;;;6.43;;
11338;SDS011;5724;42.684;23.252;2023-08-06T05:07:53;6.25;;;5.85;;
11338;SDS011;5724;42.684;23.252;2023-08-06T05:10:19;6.05;;;5.75;;
11338;SDS011;5724;42.684;23.252;2023-08-06T05:12:46;8.15;;;7.43;;
11338;SDS011;5724;42.684;23.252;2023-08-06T05:15:12;7.80;;;7.30;;
11338;SDS011;5724;42.684;23.252;2023-08-06T05:17:37;8.75;;;8.10;;
11338;SDS011;5724;42.684;23.252;2023-08-06T05:20:03;9.00;;;8.40;;
11338;SDS011;5724;42.684;23.252;2023-08-06T05:22:29;9.50;;;8.90;;
11338;SDS011;5724;42.684;23.252;2023-08-06T05:24:54;10.80;;;10.00;;
11338;SDS011;5724;42.684;23.252;2023-08-06T05:27:20;11.27;;;10.55;;
11338;SDS011;5724;42.684;23.252;2023-08-06T05:29:45;11.63;;;10.93;;
11338;SDS011;5724;42.684;23.252;2023-08-06T05:32:11;13.10;;;12.13;;
11338;SDS011;5724;42.684;23.252;2023-08-06T05:34:36;13.63;;;12.63;;
11338;SDS011;5724;42.684;23.252;2023-08-06T05:37:02;11.27;;;10.57;;
11338;SDS011;5724;42.684;23.252;2023-08-06T05:39:28;6.30;;;6.00;;
11338;SDS011;5724;42.684;23.252;2023-08-06T05:41:54;5.90;;;5.60;;
11338;SDS011;5724;42.684;23.252;2023-08-06T05:44:20;5.85;;;5.57;;
11338;SDS011;5724;42.684;23.252;2023-08-06T05:46:46;4.85;;;4.65;;
11338;SDS011;5724;42.684;23.252;2023-08-06T05:49:11;4.97;;;4.68;;
11338;SDS011;5724;42.684;23.252;2023-08-06T05:51:38;4.75;;;4.32;;
11338;SDS011;5724;42.684;23.252;2023-08-06T05:54:04;4.25;;;4.05;;
11338;SDS011;5724;42.684;23.252;2023-08-06T05:56:29;4.05;;;3.85;;
11338;SDS011;5724;42.684;23.252;2023-08-06T05:58:55;4.22;;;3.92;;
11338;SDS011;5724;42.684;23.252;2023-08-06T06:01:20;3.63;;;3.53;;
11338;SDS011;5724;42.684;23.252;2023-08-06T06:03:46;3.03;;;2.92;;
11338;SDS011;5724;42.684;23.252;2023-08-06T06:06:11;3.33;;;3.22;;
11338;SDS011;5724;42.684;23.252;2023-08-06T06:08:37;3.17;;;3.08;;
11338;SDS011;5724;42.684;23.252;2023-08-06T06:11:02;3.60;;;3.30;;
11338;SDS011;5724;42.684;23.252;2023-08-06T06:13:27;3.60;;;3.40;;
11338;SDS011;5724;42.684;23.252;2023-08-06T06:15:56;3.13;;;3.03;;
11338;SDS011;5724;42.684;23.252;2023-08-06T06:18:22;3.50;;;3.22;;
11338;SDS011;5724;42.684;23.252;2023-08-06T06:20:47;3.05;;;2.95;;
11338;SDS011;5724;42.684;23.252;2023-08-06T06:23:13;3.17;;;3.08;;
11338;SDS011;5724;42.684;23.252;2023-08-06T06:25:48;3.22;;;3.03;;
11338;SDS011;5724;42.684;23.252;2023-08-06T06:28:16;3.55;;;3.35;;
11338;SDS011;5724;42.684;23.252;2023-08-06T06:30:42;3.40;;;2.90;;
11338;SDS011;5724;42.684;23.252;2023-08-06T06:33:08;3.58;;;3.38;;
11338;SDS011;5724;42.684;23.252;2023-08-06T06:35:33;3.60;;;3.40;;
11338;SDS011;5724;42.684;23.252;2023-08-06T06:37:59;3.50;;;3.35;;
11338;SDS011;5724;42.684;23.252;2023-08-06T06:40:25;3.35;;;3.13;;
11338;SDS011;5724;42.684;23.252;2023-08-06T06:42:50;3.53;;;3.33;;
11338;SDS011;5724;42.684;23.252;2023-08-06T06:45:16;3.20;;;3.00;;
11338;SDS011;5724;42.684;23.252;2023-08-06T06:47:41;3.08;;;2.97;;
11338;SDS011;5724;42.684;23.252;2023-08-06T06:50:07;3.30;;;3.10;;
11338;SDS011;5724;42.684;23.252;2023-08-06T06:52:32;3.38;;;3.13;;
11338;SDS011;5724;42.684;23.252;2023-08-06T06:54:58;2.92;;;2.72;;
11338;SDS011;5724;42.684;23.252;2023-08-06T06:57:23;2.83;;;2.72;;
11338;SDS011;5724;42.684;23.252;2023-08-06T06:59:49;2.30;;;2.20;;
11338;SDS011;5724;42.684;23.252;2023-08-06T07:02:14;2.78;;;2.67;;
11338;SDS011;5724;42.684;23.252;2023-08-06T07:04:39;3.33;;;3.08;;
11338;SDS011;5724;42.684;23.252;2023-08-06T07:07:05;2.65;;;2.53;;
11338;SDS011;5724;42.684;23.252;2023-08-06T07:09:30;2.78;;;2.67;;
11338;SDS011;5724;42.684;23.252;2023-08-06T07:11:56;2.88;;;2.78;;
11338;SDS011;5724;42.684;23.252;2023-08-06T07:14:21;3.08;;;2.97;;
11338;SDS011;5724;42.684;23.252;2023-08-06T07:16:48;2.92;;;2.72;;
11338;SDS011;5724;42.684;23.252;2023-08-06T07:19:13;3.33;;;3.03;;
11338;SDS011;5724;42.684;23.252;2023-08-06T07:21:38;2.75;;;2.55;;
11338;SDS011;5724;42.684;23.252;2023-08-06T07:24:04;3.92;;;2.63;;
11338;SDS011;5724;42.684;23.252;2023-08-06T07:26:29;2.40;;;2.30;;
11338;SDS011;5724;42.684;23.252;2023-08-06T07:28:59;2.35;;;2.25;;
11338;SDS011;5724;42.684;23.252;2023-08-06T07:31:24;2.67;;;2.45;;
11338;SDS011;5724;42.684;23.252;2023-08-06T07:33:50;2.78;;;2.55;;
11338;SDS011;5724;42.684;23.252;2023-08-06T07:36:16;2.60;;;2.50;;
11338;SDS011;5724;42.684;23.252;2023-08-06T07:38:41;3.03;;;2.80;;
11338;SDS011;5724;42.684;23.252;2023-08-06T07:41:07;2.72;;;2.63;;
11338;SDS011;5724;42.684;23.252;2023-08-06T07:43:33;2.70;;;2.55;;
11338;SDS011;5724;42.684;23.252;2023-08-06T07:46:00;2.85;;;2.65;;
11338;SDS011;5724;42.684;23.252;2023-08-06T07:48:26;2.70;;;2.60;;
11338;SDS011;5724;42.684;23.252;2023-08-06T07:50:53;2.38;;;2.22;;
11338;SDS011;5724;42.684;23.252;2023-08-06T07:53:22;2.67;;;2.47;;
11338;SDS011;5724;42.684;23.252;2023-08-06T07:55:52;2.05;;;1.95;;
11338;SDS011;5724;42.684;23.252;2023-08-06T07:58:19;2.28;;;2.17;;
11338;SDS011;5724;42.684;23.252;2023-08-06T08:00:45;2.55;;;2.40;;
11338;SDS011;5724;42.684;23.252;2023-08-06T08:03:14;2.42;;;2.33;;
11338;SDS011;5724;42.684;23.252;2023-08-06T08:05:40;2.40;;;2.30;;
11338;SDS011;5724;42.684;23.252;2023-08-06T08:08:07;2.70;;;2.55;;
11338;SDS011;5724;42.684;23.252;2023-08-06T08:10:33;2.58;;;2.40;;
11338;SDS011;5724;42.684;23.252;2023-08-06T08:13:00;2.47;;;2.38;;
11338;SDS011;5724;42.684;23.252;2023-08-06T08:15:29;2.08;;;1.98;;
11338;SDS011;5724;42.684;23.252;2023-08-06T08:17:55;2.50;;;2.30;;
11338;SDS011;5724;42.684;23.252;2023-08-06T08:20:21;3.03;;;2.80;;
11338;SDS011;5724;42.684;23.252;2023-08-06T08:22:47;2.78;;;2.40;;
11338;SDS011;5724;42.684;23.252;2023-08-06T08:25:12;2.53;;;2.20;;
11338;SDS011;5724;42.684;23.252;2023-08-06T08:27:38;2.72;;;2.53;;
11338;SDS011;5724;42.684;23.252;2023-08-06T08:30:04;2.42;;;2.33;;
11338;SDS011;5724;42.684;23.252;2023-08-06T08:32:30;2.50;;;2.40;;
11338;SDS011;5724;42.684;23.252;2023-08-06T08:34:55;2.40;;;2.30;;
11338;SDS011;5724;42.684;23.252;2023-08-06T08:37:21;2.45;;;2.33;;
11338;SDS011;5724;42.684;23.252;2023-08-06T08:39:48;2.75;;;2.65;;
11338;SDS011;5724;42.684;23.252;2023-08-06T08:42:13;2.80;;;2.60;;
11338;SDS011;5724;42.684;23.252;2023-08-06T08:44:40;2.40;;;2.30;;
11338;SDS011;5724;42.684;23.252;2023-08-06T08:47:07;2.78;;;2.30;;
11338;SDS011;5724;42.684;23.252;2023-08-06T08:49:36;2.80;;;2.65;;
11338;SDS011;5724;42.684;23.252;2023-08-06T08:52:02;2.72;;;2.63;;
11338;SDS011;5724;42.684;23.252;2023-08-06T08:54:33;2.70;;;2.50;;
11338;SDS011;5724;42.684;23.252;2023-08-06T08:56:59;2.88;;;2.67;;
11338;SDS011;5724;42.684;23.252;2023-08-06T08:59:25;3.03;;;2.80;;
11338;SDS011;5724;42.684;23.252;2023-08-06T09:01:51;2.40;;;2.30;;
11338;SDS011;5724;42.684;23.252;2023-08-06T09:04:19;2.80;;;2.70;;
11338;SDS011;5724;42.684;23.252;2023-08-06T09:06:47;2.97;;;2.88;;
11338;SDS011;5724;42.684;23.252;2023-08-06T09:09:22;3.05;;;2.58;;
11338;SDS011;5724;42.684;23.252;2023-08-06T09:11:51;2.80;;;2.60;;
11338;SDS011;5724;42.684;23.252;2023-08-06T09:14:17;2.33;;;2.22;;
11338;SDS011;5724;42.684;23.252;2023-08-06T09:16:43;2.60;;;2.40;;
11338;SDS011;5724;42.684;23.252;2023-08-06T09:19:13;2.40;;;2.30;;
11338;SDS011;5724;42.684;23.252;2023-08-06T09:21:42;2.28;;;2.17;;
11338;SDS011;5724;42.684;23.252;2023-08-06T09:24:11;2.70;;;2.35;;
11338;SDS011;5724;42.684;23.252;2023-08-06T09:26:37;2.65;;;2.45;;
11338;SDS011;5724;42.684;23.252;2023-08-06T09:29:07;1.85;;;1.75;;
11338;SDS011;5724;42.684;23.252;2023-08-06T09:34:15;1.90;;;1.80;;
11338;SDS011;5724;42.684;23.252;2023-08-06T09:36:49;2.47;;;2.00;;
11338;SDS011;5724;42.684;23.252;2023-08-06T09:39:21;2.20;;;2.10;;
11338;SDS011;5724;42.684;23.252;2023-08-06T09:41:55;2.22;;;2.05;;
11338;SDS011;5724;42.684;23.252;2023-08-06T09:44:24;2.08;;;1.80;;
11338;SDS011;5724;42.684;23.252;2023-08-06T09:46:57;1.90;;;1.90;;
11338;SDS011;5724;42.684;23.252;2023-08-06T09:49:28;2.33;;;1.95;;
11338;SDS011;5724;42.684;23.252;2023-08-06T09:52:08;1.80;;;1.70;;
11338;SDS011;5724;42.684;23.252;2023-08-06T09:54:36;1.55;;;1.45;;
11338;SDS011;5724;42.684;23.252;2023-08-06T09:57:03;1.90;;;1.80;;
11338;SDS011;5724;42.684;23.252;2023-08-06T09:59:29;1.92;;;1.83;;
11338;SDS011;5724;42.684;23.252;2023-08-06T10:01:55;2.10;;;2.00;;
11338;SDS011;5724;42.684;23.252;2023-08-06T10:04:21;2.05;;;2.03;;
11338;SDS011;5724;42.684;23.252;2023-08-06T10:06:48;1.67;;;1.58;;
11338;SDS011;5724;42.684;23.252;2023-08-06T10:09:14;1.90;;;1.80;;
11338;SDS011;5724;42.684;23.252;2023-08-06T10:11:40;1.95;;;1.85;;
11338;SDS011;5724;42.684;23.252;2023-08-06T10:14:18;1.90;;;1.80;;
11338;SDS011;5724;42.684;23.252;2023-08-06T10:16:47;1.70;;;1.60;;
11338;SDS011;5724;42.684;23.252;2023-08-06T10:19:14;1.73;;;1.67;;
11338;SDS011;5724;42.684;23.252;2023-08-06T10:21:42;2.00;;;1.90;;
11338;SDS011;5724;42.684;23.252;2023-08-06T10:29:47;1.95;;;1.85;;
11338;SDS011;5724;42.684;23.252;2023-08-06T10:32:14;1.70;;;1.70;;
11338;SDS011;5724;42.684;23.252;2023-08-06T10:34:55;2.20;;;2.10;;
11338;SDS011;5724;42.684;23.252;2023-08-06T10:37:35;2.00;;;1.90;;
11338;SDS011;5724;42.684;23.252;2023-08-06T10:40:01;2.10;;;2.00;;
11338;SDS011;5724;42.684;23.252;2023-08-06T10:42:27;2.50;;;2.00;;
11338;SDS011;5724;42.684;23.252;2023-08-06T10:45:12;2.05;;;1.83;;
11338;SDS011;5724;42.684;23.252;2023-08-06T10:47:39;2.00;;;1.90;;
11338;SDS011;5724;42.684;23.252;2023-08-06T10:50:06;3.20;;;2.13;;
11338;SDS011;5724;42.684;23.252;2023-08-06T10:52:45;2.83;;;2.63;;
11338;SDS011;5724;42.684;23.252;2023-08-06T10:55:12;2.42;;;2.30;;
11338;SDS011;5724;42.684;23.252;2023-08-06T10:57:38;2.50;;;2.40;;
11338;SDS011;5724;42.684;23.252;2023-08-06T11:00:07;2.80;;;2.20;;
11338;SDS011;5724;42.684;23.252;2023-08-06T11:02:34;2.20;;;2.10;;
11338;SDS011;5724;42.684;23.252;2023-08-06T11:05:07;2.33;;;2.22;;
11338;SDS011;5724;42.684;23.252;2023-08-06T11:07:34;2.38;;;2.13;;
11338;SDS011;5724;42.684;23.252;2023-08-06T11:10:03;2.40;;;2.30;;
11338;SDS011;5724;42.684;23.252;2023-08-06T11:12:31;2.55;;;2.45;;
11338;SDS011;5724;42.684;23.252;2023-08-06T11:14:57;3.38;;;3.17;;
11338;SDS011;5724;42.684;23.252;2023-08-06T11:17:22;2.70;;;2.47;;
11338;SDS011;5724;42.684;23.252;2023-08-06T11:19:48;3.00;;;2.80;;
11338;SDS011;5724;42.684;23.252;2023-08-06T11:22:16;6.05;;;5.75;;
11338;SDS011;5724;42.684;23.252;2023-08-06T11:24:43;3.15;;;3.05;;
11338;SDS011;5724;42.684;23.252;2023-08-06T11:27:14;3.05;;;2.85;;
11338;SDS011;5724;42.684;23.252;2023-08-06T11:29:41;3.30;;;3.10;;
11338;SDS011;5724;42.684;23.252;2023-08-06T11:32:07;3.63;;;3.50;;
11338;SDS011;5724;42.684;23.252;2023-08-06T11:34:34;2.72;;;2.63;;
11338;SDS011;5724;42.684;23.252;2023-08-06T11:36:59;6.53;;;6.13;;
11338;SDS011;5724;42.684;23.252;2023-08-06T11:39:25;6.45;;;6.05;;
11338;SDS011;5724;42.684;23.252;2023-08-06T11:41:50;3.38;;;3.17;;
11338;SDS011;5724;42.684;23.252;2023-08-06T11:44:18;4.40;;;4.10;;
11338;SDS011;5724;42.684;23.252;2023-08-06T11:49:17;4.05;;;3.85;;
11338;SDS011;5724;42.684;23.252;2023-08-06T11:51:49;3.70;;;3.50;;
11338;SDS011;5724;42.684;23.252;2023-08-06T11:54:14;3.80;;;3.50;;
11338;SDS011;5724;42.684;23.252;2023-08-06T11:56:40;2.80;;;2.70;;
11338;SDS011;5724;42.684;23.252;2023-08-06T11:59:05;3.55;;;3.35;;
11338;SDS011;5724;42.684;23.252;2023-08-06T12:01:31;3.60;;;3.50;;
11338;SDS011;5724;42.684;23.252;2023-08-06T12:03:59;4.10;;;3.90;;
11338;SDS011;5724;42.684;23.252;2023-08-06T12:06:28;3.65;;;3.50;;
11338;SDS011;5724;42.684;23.252;2023-08-06T12:08:53;3.83;;;3.72;;
11338;SDS011;5724;42.684;23.252;2023-08-06T12:11:21;3.92;;;3.72;;
11338;SDS011;5724;42.684;23.252;2023-08-06T12:13:50;3.72;;;3.63;;
11338;SDS011;5724;42.684;23.252;2023-08-06T12:16:16;3.60;;;3.40;;
11338;SDS011;5724;42.684;23.252;2023-08-06T12:18:44;4.15;;;3.95;;
11338;SDS011;5724;42.684;23.252;2023-08-06T12:21:09;3.70;;;3.50;;
11338;SDS011;5724;42.684;23.252;2023-08-06T12:23:35;3.55;;;3.45;;
11338;SDS011;5724;42.684;23.252;2023-08-06T12:26:01;3.67;;;3.33;;
11338;SDS011;5724;42.684;23.252;2023-08-06T12:28:26;4.05;;;3.85;;
11338;SDS011;5724;42.684;23.252;2023-08-06T12:30:52;4.20;;;4.00;;
11338;SDS011;5724;42.684;23.252;2023-08-06T12:33:20;4.18;;;3.83;;
11338;SDS011;5724;42.684;23.252;2023-08-06T12:35:45;3.97;;;3.67;;
11338;SDS011;5724;42.684;23.252;2023-08-06T12:38:11;4.25;;;4.05;;
11338;SDS011;5724;42.684;23.252;2023-08-06T12:40:36;4.43;;;4.10;;
11338;SDS011;5724;42.684;23.252;2023-08-06T12:43:02;4.40;;;4.05;;
11338;SDS011;5724;42.684;23.252;2023-08-06T12:45:27;4.35;;;4.05;;
11338;SDS011;5724;42.684;23.252;2023-08-06T12:47:52;4.20;;;4.00;;
11338;SDS011;5724;42.684;23.252;2023-08-06T12:50:18;4.75;;;4.45;;
11338;SDS011;5724;42.684;23.252;2023-08-06T12:52:44;4.40;;;4.10;;
11338;SDS011;5724;42.684;23.252;2023-08-06T12:55:09;4.82;;;4.53;;
11338;SDS011;5724;42.684;23.252;2023-08-06T12:57:35;4.20;;;3.90;;
11338;SDS011;5724;42.684;23.252;2023-08-06T13:00:00;4.32;;;4.03;;
11338;SDS011;5724;42.684;23.252;2023-08-06T13:02:26;4.25;;;3.95;;
11338;SDS011;5724;42.684;23.252;2023-08-06T13:04:54;4.22;;;3.97;;
11338;SDS011;5724;42.684;23.252;2023-08-06T13:07:20;4.38;;;4.05;;
11338;SDS011;5724;42.684;23.252;2023-08-06T13:09:46;3.90;;;3.70;;
11338;SDS011;5724;42.684;23.252;2023-08-06T13:12:11;4.60;;;4.20;;
11338;SDS011;5724;42.684;23.252;2023-08-06T13:14:38;4.18;;;3.97;;
11338;SDS011;5724;42.684;23.252;2023-08-06T13:17:03;3.53;;;3.42;;
11338;SDS011;5724;42.684;23.252;2023-08-06T13:19:31;4.95;;;4.20;;
11338;SDS011;5724;42.684;23.252;2023-08-06T13:22:01;3.85;;;3.72;;
11338;SDS011;5724;42.684;23.252;2023-08-06T13:24:30;4.07;;;3.88;;
11338;SDS011;5724;42.684;23.252;2023-08-06T13:26:55;4.25;;;4.05;;
11338;SDS011;5724;42.684;23.252;2023-08-06T13:29:21;4.20;;;4.00;;
11338;SDS011;5724;42.684;23.252;2023-08-06T13:31:46;4.13;;;3.90;;
11338;SDS011;5724;42.684;23.252;2023-08-06T13:34:12;4.10;;;3.80;;
11338;SDS011;5724;42.684;23.252;2023-08-06T13:36:37;5.55;;;3.67;;
11338;SDS011;5724;42.684;23.252;2023-08-06T13:39:03;3.70;;;3.40;;
11338;SDS011;5724;42.684;23.252;2023-08-06T13:41:30;4.25;;;3.90;;
11338;SDS011;5724;42.684;23.252;2023-08-06T13:43:56;4.00;;;3.58;;
11338;SDS011;5724;42.684;23.252;2023-08-06T13:46:21;4.50;;;3.97;;
11338;SDS011;5724;42.684;23.252;2023-08-06T13:48:47;3.83;;;3.58;;
11338;SDS011;5724;42.684;23.252;2023-08-06T13:51:16;4.63;;;3.67;;
11338;SDS011;5724;42.684;23.252;2023-08-06T13:53:42;3.70;;;3.50;;
11338;SDS011;5724;42.684;23.252;2023-08-06T13:56:10;3.75;;;3.45;;
11338;SDS011;5724;42.684;23.252;2023-08-06T13:58:36;3.60;;;3.40;;
11338;SDS011;5724;42.684;23.252;2023-08-06T14:01:02;3.70;;;3.40;;
11338;SDS011;5724;42.684;23.252;2023-08-06T14:03:27;3.30;;;3.20;;
11338;SDS011;5724;42.684;23.252;2023-08-06T14:05:53;3.53;;;3.38;;
11338;SDS011;5724;42.684;23.252;2023-08-06T14:08:21;3.45;;;3.25;;
11338;SDS011;5724;42.684;23.252;2023-08-06T14:10:48;3.70;;;3.50;;
11338;SDS011;5724;42.684;23.252;2023-08-06T14:13:14;3.00;;;2.78;;
11338;SDS011;5724;42.684;23.252;2023-08-06T14:15:39;3.30;;;3.00;;
11338;SDS011;5724;42.684;23.252;2023-08-06T14:18:05;3.08;;;2.97;;
11338;SDS011;5724;42.684;23.252;2023-08-06T14:20:34;3.28;;;3.08;;
11338;SDS011;5724;42.684;23.252;2023-08-06T14:22:59;2.75;;;2.65;;
11338;SDS011;5724;42.684;23.252;2023-08-06T14:25:25;3.17;;;2.80;;
11338;SDS011;5724;42.684;23.252;2023-08-06T14:27:50;2.83;;;2.72;;
11338;SDS011;5724;42.684;23.252;2023-08-06T14:30:16;4.60;;;2.92;;
11338;SDS011;5724;42.684;23.252;2023-08-06T14:32:41;2.67;;;2.47;;
11338;SDS011;5724;42.684;23.252;2023-08-06T14:35:07;2.00;;;1.90;;
11338;SDS011;5724;42.684;23.252;2023-08-06T14:37:33;2.22;;;2.10;;
11338;SDS011;5724;42.684;23.252;2023-08-06T14:39:58;2.42;;;2.33;;
11338;SDS011;5724;42.684;23.252;2023-08-06T14:42:24;1.83;;;1.52;;
11338;SDS011;5724;42.684;23.252;2023-08-06T14:44:49;2.55;;;1.88;;
11338;SDS011;5724;42.684;23.252;2023-08-06T14:47:15;2.30;;;2.20;;
11338;SDS011;5724;42.684;23.252;2023-08-06T14:49:40;1.80;;;1.80;;
11338;SDS011;5724;42.684;23.252;2023-08-06T14:52:06;1.92;;;1.77;;
11338;SDS011;5724;42.684;23.252;2023-08-06T14:54:31;2.13;;;1.88;;
11338;SDS011;5724;42.684;23.252;2023-08-06T14:56:57;2.10;;;2.00;;
11338;SDS011;5724;42.684;23.252;2023-08-06T14:59:22;2.75;;;2.58;;
11338;SDS011;5724;42.684;23.252;2023-08-06T15:01:48;3.10;;;2.90;;
11338;SDS011;5724;42.684;23.252;2023-08-06T15:04:13;2.95;;;2.85;;